Time,TemperatureF,DewpointF,PressureIn,WindDirection,WindDirectionDegrees,WindSpeedMPH,WindSpeedGustMPH,Humidity,HourlyPrecipIn,Conditions,Clouds,dailyrainin,SolarRadiationWatts/m^2,SoftwareType,DateUTC
2013-07-18 00:02:00,74.0,70.0,-100.00,West,259,1.0,3.0,87,0.00,,,0.00,0.000000,,2013-07-18 04:02:00,
2013-07-18 00:12:00,74.0,70.0,-100.00,West,259,1.0,3.0,87,0.00,,,0.00,0.000000,,2013-07-18 04:12:00,
2013-07-18 00:43:00,71.0,69.0,-100.00,WNW,290,2.0,4.0,93,0.00,,,0.00,0.000000,,2013-07-18 04:43:00,
2013-07-18 00:52:00,71.0,69.0,-100.00,WNW,290,2.0,4.0,93,0.00,,,0.00,0.000000,,2013-07-18 04:52:00,
2013-07-18 01:02:00,71.0,69.0,-100.00,WNW,290,2.0,4.0,93,0.00,,,0.00,0.000000,,2013-07-18 05:02:00,
2013-07-18 01:11:00,71.0,69.0,-100.00,WNW,290,2.0,4.0,93,0.00,,,0.00,0.000000,,2013-07-18 05:11:00,
2013-07-18 02:43:00,70.0,69.0,-100.00,WNW,301,3.0,5.0,96,-99.99,,,0.00,0.000000,,2013-07-18 06:43:00,
2013-07-18 02:52:00,70.0,69.0,-100.00,WNW,301,3.0,5.0,96,-99.99,,,0.00,0.000000,,2013-07-18 06:52:00,
2013-07-18 03:01:00,70.0,69.0,-100.00,WNW,301,3.0,5.0,96,-99.99,,,0.00,0.000000,,2013-07-18 07:01:00,
2013-07-18 03:12:00,70.0,69.0,-100.00,WNW,301,3.0,5.0,96,-99.99,,,0.00,0.000000,,2013-07-18 07:12:00,
2013-07-18 06:01:00,68.0,66.0,-100.00,WNW,301,2.0,5.0,94,-99.99,,,0.00,0.000000,,2013-07-18 10:01:00,
2013-07-18 06:11:00,68.0,66.0,-100.00,WNW,301,2.0,5.0,94,-99.99,,,0.00,0.000000,,2013-07-18 10:11:00,
2013-07-18 06:52:00,69.0,68.0,-100.00,WNW,298,1.0,4.0,95,0.00,,,0.00,1.000000,,2013-07-18 10:52:00,
2013-07-18 07:01:00,69.0,68.0,-100.00,WNW,298,1.0,4.0,95,0.00,,,0.00,1.000000,,2013-07-18 11:01:00,
2013-07-18 07:11:00,69.0,68.0,-100.00,WNW,298,1.0,4.0,95,0.00,,,0.00,1.000000,,2013-07-18 11:11:00,
2013-07-18 07:52:00,69.0,68.0,-100.00,WNW,299,3.0,4.0,95,0.00,,,0.00,16.000000,,2013-07-18 11:52:00,
2013-07-18 08:02:00,69.0,68.0,-100.00,WNW,299,3.0,4.0,95,0.00,,,0.00,16.000000,,2013-07-18 12:02:00,
2013-07-18 08:11:00,69.0,68.0,-100.00,WNW,299,3.0,4.0,95,0.00,,,0.00,16.000000,,2013-07-18 12:11:00,
2013-07-18 08:42:00,72.0,70.0,-100.00,WNW,301,3.0,5.0,94,0.00,,,0.00,51.000000,,2013-07-18 12:42:00,
2013-07-18 08:52:00,72.0,70.0,-100.00,WNW,301,3.0,5.0,94,0.00,,,0.00,51.000000,,2013-07-18 12:52:00,
2013-07-18 09:01:00,72.0,70.0,-100.00,WNW,301,3.0,5.0,94,0.00,,,0.00,51.000000,,2013-07-18 13:01:00,
2013-07-18 09:11:00,72.0,70.0,-100.00,WNW,301,3.0,5.0,94,0.00,,,0.00,51.000000,,2013-07-18 13:11:00,
2013-07-18 09:43:00,80.0,74.0,-100.00,NW,308,3.0,5.0,82,0.00,,,0.00,338.000000,,2013-07-18 13:43:00,
2013-07-18 09:53:00,80.0,74.0,-100.00,NW,308,3.0,5.0,82,0.00,,,0.00,338.000000,,2013-07-18 13:53:00,
2013-07-18 10:02:00,80.0,74.0,-100.00,NW,308,3.0,5.0,82,0.00,,,0.00,338.000000,,2013-07-18 14:02:00,
2013-07-18 10:12:00,80.0,74.0,-100.00,NW,308,3.0,5.0,82,0.00,,,0.00,338.000000,,2013-07-18 14:12:00,
2013-07-18 10:43:00,83.0,74.0,-100.00,WNW,296,3.0,5.0,75,0.00,,,0.00,500.000000,,2013-07-18 14:43:00,
2013-07-18 10:53:00,83.0,74.0,-100.00,WNW,296,3.0,5.0,75,0.00,,,0.00,500.000000,,2013-07-18 14:53:00,
2013-07-18 11:01:00,83.0,74.0,-100.00,WNW,296,3.0,5.0,75,0.00,,,0.00,500.000000,,2013-07-18 15:01:00,
2013-07-18 11:11:00,83.0,74.0,-100.00,WNW,296,3.0,5.0,75,0.00,,,0.00,500.000000,,2013-07-18 15:11:00,
2013-07-18 11:43:00,84.0,73.0,-100.00,NW,310,3.0,6.0,70,0.00,,,0.00,641.000000,,2013-07-18 15:43:00,
2013-07-18 11:53:00,84.0,73.0,-100.00,NW,310,3.0,6.0,70,0.00,,,0.00,641.000000,,2013-07-18 15:53:00,
2013-07-18 12:01:00,84.0,73.0,-100.00,NW,310,3.0,6.0,70,0.00,,,0.00,641.000000,,2013-07-18 16:01:00,
2013-07-18 12:12:00,84.0,73.0,-100.00,NW,310,3.0,6.0,70,0.00,,,0.00,641.000000,,2013-07-18 16:12:00,
2013-07-18 12:42:00,87.0,74.0,-100.00,NW,311,3.0,5.0,65,0.00,,,-99.99,756.000000,,2013-07-18 16:42:00,
2013-07-18 12:52:00,87.0,74.0,-100.00,NW,311,3.0,5.0,65,0.00,,,-99.99,756.000000,,2013-07-18 16:52:00,
2013-07-18 13:02:00,87.0,74.0,-100.00,NW,311,3.0,5.0,65,0.00,,,-99.99,756.000000,,2013-07-18 17:02:00,
2013-07-18 13:11:00,87.0,74.0,-100.00,NW,311,3.0,5.0,65,0.00,,,-99.99,756.000000,,2013-07-18 17:11:00,
2013-07-18 13:43:00,87.0,70.0,-100.00,SW,230,3.0,5.0,57,0.00,,,0.00,823.000000,,2013-07-18 17:43:00,
2013-07-18 13:52:00,87.0,70.0,-100.00,SW,230,3.0,5.0,57,0.00,,,0.00,823.000000,,2013-07-18 17:52:00,
2013-07-18 14:01:00,87.0,70.0,-100.00,SW,230,3.0,5.0,57,0.00,,,0.00,823.000000,,2013-07-18 18:01:00,
2013-07-18 14:12:00,87.0,70.0,-100.00,SW,230,3.0,5.0,57,0.00,,,0.00,823.000000,,2013-07-18 18:12:00,
2013-07-18 14:52:00,84.0,66.0,-100.00,ESE,111,2.0,5.0,55,0.00,,,0.00,707.000000,,2013-07-18 18:52:00,
2013-07-18 15:02:00,84.0,66.0,-100.00,ESE,111,2.0,5.0,55,0.00,,,0.00,707.000000,,2013-07-18 19:02:00,
2013-07-18 15:11:00,84.0,66.0,-100.00,ESE,111,2.0,5.0,55,0.00,,,0.00,707.000000,,2013-07-18 19:11:00,
2013-07-18 15:43:00,89.0,69.0,-100.00,WNW,295,3.0,6.0,52,0.00,,,0.00,806.000000,,2013-07-18 19:43:00,
2013-07-18 15:53:00,89.0,69.0,-100.00,WNW,295,3.0,6.0,52,0.00,,,0.00,806.000000,,2013-07-18 19:53:00,
2013-07-18 16:02:00,89.0,69.0,-100.00,WNW,295,3.0,6.0,52,0.00,,,0.00,806.000000,,2013-07-18 20:02:00,
2013-07-18 16:11:00,89.0,69.0,-100.00,WNW,295,3.0,6.0,52,0.00,,,0.00,806.000000,,2013-07-18 20:11:00,
2013-07-18 16:43:00,89.0,70.0,-100.00,SSW,213,3.0,5.0,53,0.00,,,0.00,786.000000,,2013-07-18 20:43:00,
2013-07-18 16:52:00,89.0,70.0,-100.00,SSW,213,3.0,5.0,53,0.00,,,0.00,786.000000,,2013-07-18 20:52:00,
2013-07-18 17:01:00,89.0,70.0,-100.00,SSW,213,3.0,5.0,53,0.00,,,0.00,786.000000,,2013-07-18 21:01:00,
2013-07-18 17:11:00,89.0,70.0,-100.00,SSW,213,3.0,5.0,53,0.00,,,0.00,786.000000,,2013-07-18 21:11:00,
2013-07-18 17:43:00,83.0,69.0,-100.00,WNW,284,2.0,6.0,63,0.00,,,0.00,414.000000,,2013-07-18 21:43:00,
2013-07-18 17:52:00,83.0,69.0,-100.00,WNW,284,2.0,6.0,63,0.00,,,0.00,414.000000,,2013-07-18 21:52:00,
2013-07-18 18:01:00,83.0,69.0,-100.00,WNW,284,2.0,6.0,63,0.00,,,0.00,414.000000,,2013-07-18 22:01:00,
2013-07-18 18:11:00,83.0,69.0,-100.00,WNW,284,2.0,6.0,63,0.00,,,0.00,414.000000,,2013-07-18 22:11:00,
2013-07-18 18:43:00,85.0,71.0,-100.00,NNW,343,2.0,5.0,63,0.00,,,-99.99,360.000000,,2013-07-18 22:43:00,
2013-07-18 18:53:00,85.0,71.0,-100.00,NNW,343,2.0,5.0,63,0.00,,,-99.99,360.000000,,2013-07-18 22:53:00,
2013-07-18 19:02:00,85.0,71.0,-100.00,NNW,343,2.0,5.0,63,0.00,,,-99.99,360.000000,,2013-07-18 23:02:00,
2013-07-18 19:11:00,85.0,71.0,-100.00,NNW,343,2.0,5.0,63,0.00,,,-99.99,360.000000,,2013-07-18 23:11:00,
2013-07-18 19:42:00,78.0,63.0,-100.00,NW,313,2.0,5.0,61,0.00,,,0.00,138.000000,,2013-07-18 23:42:00,
2013-07-18 19:52:00,78.0,63.0,-100.00,NW,313,2.0,5.0,61,0.00,,,0.00,138.000000,,2013-07-18 23:52:00,
2013-07-18 20:01:00,78.0,63.0,-100.00,NW,313,2.0,5.0,61,0.00,,,0.00,138.000000,,2013-07-19 00:01:00,
2013-07-18 20:11:00,78.0,63.0,-100.00,NW,313,2.0,5.0,61,0.00,,,0.00,138.000000,,2013-07-19 00:11:00,
2013-07-18 20:43:00,76.0,67.0,-100.00,WNW,302,2.0,3.0,73,0.00,,,0.00,57.000000,,2013-07-19 00:43:00,
2013-07-18 20:52:00,76.0,67.0,-100.00,WNW,302,2.0,3.0,73,0.00,,,0.00,57.000000,,2013-07-19 00:52:00,
2013-07-18 21:01:00,76.0,67.0,-100.00,WNW,302,2.0,3.0,73,0.00,,,0.00,57.000000,,2013-07-19 01:01:00,
2013-07-18 21:11:00,76.0,67.0,-100.00,WNW,302,2.0,3.0,73,0.00,,,0.00,57.000000,,2013-07-19 01:11:00,
2013-07-18 21:42:00,75.0,65.0,-100.00,SSE,165,2.0,3.0,70,0.00,,,0.00,15.000000,,2013-07-19 01:42:00,
2013-07-18 21:52:00,75.0,65.0,-100.00,SSE,165,2.0,3.0,70,0.00,,,0.00,15.000000,,2013-07-19 01:52:00,
2013-07-18 22:02:00,75.0,65.0,-100.00,SSE,165,2.0,3.0,70,0.00,,,0.00,15.000000,,2013-07-19 02:02:00,
2013-07-18 22:11:00,75.0,65.0,-100.00,SSE,165,2.0,3.0,70,0.00,,,0.00,15.000000,,2013-07-19 02:11:00,
2013-07-18 22:43:00,74.0,67.0,-100.00,SW,224,2.0,5.0,79,0.00,,,0.00,0.000000,,2013-07-19 02:43:00,
2013-07-18 22:52:00,74.0,67.0,-100.00,SW,224,2.0,5.0,79,0.00,,,0.00,0.000000,,2013-07-19 02:52:00,
2013-07-18 23:01:00,74.0,67.0,-100.00,SW,224,2.0,5.0,79,0.00,,,0.00,0.000000,,2013-07-19 03:01:00,
2013-07-18 23:11:00,74.0,67.0,-100.00,SW,224,2.0,5.0,79,0.00,,,0.00,0.000000,,2013-07-19 03:11:00,
2013-07-18 23:52:00,74.0,68.0,-100.00,WNW,288,2.0,5.0,82,0.00,,,0.00,0.000000,,2013-07-19 03:52:00,